sensor_id;sensor_type;location;lat;lon;timestamp;temperature;humidity
15083;DHT22;7640;53.116;6.878;2023-04-03T00:00:40;3.40;99.90
15083;DHT22;7640;53.116;6.878;2023-04-03T00:03:11;3.40;99.90
15083;DHT22;7640;53.116;6.878;2023-04-03T00:05:49;3.30;99.90
15083;DHT22;7640;53.116;6.878;2023-04-03T00:08:44;3.30;99.90
15083;DHT22;7640;53.116;6.878;2023-04-03T00:14:45;3.20;99.90
15083;DHT22;7640;53.116;6.878;2023-04-03T00:18:03;3.20;99.90
15083;DHT22;7640;53.116;6.878;2023-04-03T00:21:28;3.20;99.90
15083;DHT22;7640;53.116;6.878;2023-04-03T00:24:40;3.10;99.90
15083;DHT22;7640;53.116;6.878;2023-04-03T00:27:44;3.10;99.90
15083;DHT22;7640;53.116;6.878;2023-04-03T00:30:38;3.10;99.90
15083;DHT22;7640;53.116;6.878;2023-04-03T00:33:53;3.10;99.90
15083;DHT22;7640;53.116;6.878;2023-04-03T00:37:54;3.00;99.90
15083;DHT22;7640;53.116;6.878;2023-04-03T00:41:26;2.90;99.90
15083;DHT22;7640;53.116;6.878;2023-04-03T00:45:57;2.90;99.90
15083;DHT22;7640;53.116;6.878;2023-04-03T00:49:16;2.90;99.90
15083;DHT22;7640;53.116;6.878;2023-04-03T00:53:14;2.90;99.90
15083;DHT22;7640;53.116;6.878;2023-04-03T00:56:00;2.80;99.90
15083;DHT22;7640;53.116;6.878;2023-04-03T00:58:57;2.80;99.90
15083;DHT22;7640;53.116;6.878;2023-04-03T01:01:40;2.70;99.90
15083;DHT22;7640;53.116;6.878;2023-04-03T01:05:13;2.80;99.90
15083;DHT22;7640;53.116;6.878;2023-04-03T01:13:33;2.70;99.90
15083;DHT22;7640;53.116;6.878;2023-04-03T01:16:11;2.60;99.90
15083;DHT22;7640;53.116;6.878;2023-04-03T01:18:47;2.60;99.90
15083;DHT22;7640;53.116;6.878;2023-04-03T01:21:58;2.60;99.90
15083;DHT22;7640;53.116;6.878;2023-04-03T01:25:13;2.60;99.90
15083;DHT22;7640;53.116;6.878;2023-04-03T01:28:38;2.60;99.90
15083;DHT22;7640;53.116;6.878;2023-04-03T01:31:19;2.50;99.90
15083;DHT22;7640;53.116;6.878;2023-04-03T01:34:15;2.50;99.90
15083;DHT22;7640;53.116;6.878;2023-04-03T01:37:54;2.50;99.90
15083;DHT22;7640;53.116;6.878;2023-04-03T01:40:38;2.50;99.90
15083;DHT22;7640;53.116;6.878;2023-04-03T01:43:11;2.40;99.90
15083;DHT22;7640;53.116;6.878;2023-04-03T01:46:50;2.40;99.90
15083;DHT22;7640;53.116;6.878;2023-04-03T01:50:09;2.40;99.90
15083;DHT22;7640;53.116;6.878;2023-04-03T01:53:07;2.40;99.90
15083;DHT22;7640;53.116;6.878;2023-04-03T01:55:47;2.30;99.90
15083;DHT22;7640;53.116;6.878;2023-04-03T01:58:19;2.30;99.90
15083;DHT22;7640;53.116;6.878;2023-04-03T02:01:10;2.40;99.90
15083;DHT22;7640;53.116;6.878;2023-04-03T02:03:47;2.30;99.90
15083;DHT22;7640;53.116;6.878;2023-04-03T02:06:59;2.30;99.90
15083;DHT22;7640;53.116;6.878;2023-04-03T02:09:45;2.30;99.90
15083;DHT22;7640;53.116;6.878;2023-04-03T02:13:13;2.20;99.90
15083;DHT22;7640;53.116;6.878;2023-04-03T02:16:22;2.20;99.90
15083;DHT22;7640;53.116;6.878;2023-04-03T02:19:10;2.20;99.90
15083;DHT22;7640;53.116;6.878;2023-04-03T02:21:40;2.10;99.90
15083;DHT22;7640;53.116;6.878;2023-04-03T02:25:07;2.10;99.90
15083;DHT22;7640;53.116;6.878;2023-04-03T02:28:20;2.10;99.90
15083;DHT22;7640;53.116;6.878;2023-04-03T02:31:37;2.00;99.90
15083;DHT22;7640;53.116;6.878;2023-04-03T02:34:47;2.00;99.90
15083;DHT22;7640;53.116;6.878;2023-04-03T02:42:47;1.90;99.90
15083;DHT22;7640;53.116;6.878;2023-04-03T02:46:20;1.90;99.90
15083;DHT22;7640;53.116;6.878;2023-04-03T02:49:17;1.80;99.90
15083;DHT22;7640;53.116;6.878;2023-04-03T02:52:48;1.80;99.90
15083;DHT22;7640;53.116;6.878;2023-04-03T02:56:49;1.70;99.90
15083;DHT22;7640;53.116;6.878;2023-04-03T03:00:47;1.70;99.90
15083;DHT22;7640;53.116;6.878;2023-04-03T03:31:45;1.20;99.90
15083;DHT22;7640;53.116;6.878;2023-04-03T03:34:18;1.10;99.90
15083;DHT22;7640;53.116;6.878;2023-04-03T03:37:02;1.00;99.90
15083;DHT22;7640;53.116;6.878;2023-04-03T03:39:44;1.10;99.90
15083;DHT22;7640;53.116;6.878;2023-04-03T03:42:58;1.10;99.90
15083;DHT22;7640;53.116;6.878;2023-04-03T03:46:21;1.10;99.90
15083;DHT22;7640;53.116;6.878;2023-04-03T03:49:44;1.10;99.90
15083;DHT22;7640;53.116;6.878;2023-04-03T03:52:44;1.00;99.90
15083;DHT22;7640;53.116;6.878;2023-04-03T03:55:46;1.00;99.90
15083;DHT22;7640;53.116;6.878;2023-04-03T03:58:41;1.00;99.90
15083;DHT22;7640;53.116;6.878;2023-04-03T04:01:14;1.00;99.90
15083;DHT22;7640;53.116;6.878;2023-04-03T04:03:47;1.00;99.90
15083;DHT22;7640;53.116;6.878;2023-04-03T04:06:32;1.00;99.90
15083;DHT22;7640;53.116;6.878;2023-04-03T04:09:09;1.00;99.90
15083;DHT22;7640;53.116;6.878;2023-04-03T04:11:48;1.00;99.90
15083;DHT22;7640;53.116;6.878;2023-04-03T04:15:02;1.00;99.90
15083;DHT22;7640;53.116;6.878;2023-04-03T04:18:09;0.90;99.90
15083;DHT22;7640;53.116;6.878;2023-04-03T04:21:07;0.90;99.90
15083;DHT22;7640;53.116;6.878;2023-04-03T04:27:14;0.90;99.90
15083;DHT22;7640;53.116;6.878;2023-04-03T04:29:46;0.90;99.90
15083;DHT22;7640;53.116;6.878;2023-04-03T04:36:34;0.90;99.90
15083;DHT22;7640;53.116;6.878;2023-04-03T04:39:36;0.90;99.90
15083;DHT22;7640;53.116;6.878;2023-04-03T04:42:19;0.80;99.90
15083;DHT22;7640;53.116;6.878;2023-04-03T04:45:10;0.90;99.90
15083;DHT22;7640;53.116;6.878;2023-04-03T04:48:20;0.80;99.90
15083;DHT22;7640;53.116;6.878;2023-04-03T04:52:59;0.80;99.90
15083;DHT22;7640;53.116;6.878;2023-04-03T04:56:26;0.80;99.90
15083;DHT22;7640;53.116;6.878;2023-04-03T05:04:40;0.70;99.90
15083;DHT22;7640;53.116;6.878;2023-04-03T05:07:22;0.70;99.90
15083;DHT22;7640;53.116;6.878;2023-04-03T05:10:08;0.70;99.90
15083;DHT22;7640;53.116;6.878;2023-04-03T05:12:42;0.70;99.90
15083;DHT22;7640;53.116;6.878;2023-04-03T05:15:40;0.70;99.90
15083;DHT22;7640;53.116;6.878;2023-04-03T05:19:03;0.70;99.90
15083;DHT22;7640;53.116;6.878;2023-04-03T05:21:36;0.70;99.90
15083;DHT22;7640;53.116;6.878;2023-04-03T05:24:31;0.80;99.90
15083;DHT22;7640;53.116;6.878;2023-04-03T05:27:01;0.70;99.90
15083;DHT22;7640;53.116;6.878;2023-04-03T05:29:45;0.80;99.90
15083;DHT22;7640;53.116;6.878;2023-04-03T05:32:16;0.80;99.90
15083;DHT22;7640;53.116;6.878;2023-04-03T05:34:46;0.80;99.90
15083;DHT22;7640;53.116;6.878;2023-04-03T05:37:17;0.80;99.90
15083;DHT22;7640;53.116;6.878;2023-04-03T05:39:48;0.90;99.90
15083;DHT22;7640;53.116;6.878;2023-04-03T05:42:17;0.90;99.90
15083;DHT22;7640;53.116;6.878;2023-04-03T05:44:56;1.00;99.90
15083;DHT22;7640;53.116;6.878;2023-04-03T05:47:28;1.00;99.90
15083;DHT22;7640;53.116;6.878;2023-04-03T05:49:59;1.00;99.90
15083;DHT22;7640;53.116;6.878;2023-04-03T05:52:36;1.00;99.90
15083;DHT22;7640;53.116;6.878;2023-04-03T05:55:35;1.10;99.90
15083;DHT22;7640;53.116;6.878;2023-04-03T05:58:09;1.10;99.90
15083;DHT22;7640;53.116;6.878;2023-04-03T06:00:41;1.20;99.90
15083;DHT22;7640;53.116;6.878;2023-04-03T06:05:49;1.30;99.90
15083;DHT22;7640;53.116;6.878;2023-04-03T06:08:30;1.30;99.90
15083;DHT22;7640;53.116;6.878;2023-04-03T06:11:01;1.40;99.90
15083;DHT22;7640;53.116;6.878;2023-04-03T06:13:34;1.50;99.90
15083;DHT22;7640;53.116;6.878;2023-04-03T06:16:05;1.50;99.90
15083;DHT22;7640;53.116;6.878;2023-04-03T06:18:34;1.60;99.90
15083;DHT22;7640;53.116;6.878;2023-04-03T06:21:04;1.70;99.90
15083;DHT22;7640;53.116;6.878;2023-04-03T06:23:36;1.80;99.90
15083;DHT22;7640;53.116;6.878;2023-04-03T06:26:05;1.90;99.90
15083;DHT22;7640;53.116;6.878;2023-04-03T06:28:34;2.00;99.90
15083;DHT22;7640;53.116;6.878;2023-04-03T06:31:04;2.00;99.90
15083;DHT22;7640;53.116;6.878;2023-04-03T06:33:33;2.10;99.90
15083;DHT22;7640;53.116;6.878;2023-04-03T06:36:05;2.20;99.90
15083;DHT22;7640;53.116;6.878;2023-04-03T06:38:41;2.30;99.90
15083;DHT22;7640;53.116;6.878;2023-04-03T06:41:12;2.40;99.90
15083;DHT22;7640;53.116;6.878;2023-04-03T06:43:41;2.50;99.90
15083;DHT22;7640;53.116;6.878;2023-04-03T06:46:14;2.50;99.90
15083;DHT22;7640;53.116;6.878;2023-04-03T06:48:45;2.70;99.90
15083;DHT22;7640;53.116;6.878;2023-04-03T06:51:18;2.70;99.90
15083;DHT22;7640;53.116;6.878;2023-04-03T06:53:58;2.80;99.90
15083;DHT22;7640;53.116;6.878;2023-04-03T06:56:41;2.90;99.90
15083;DHT22;7640;53.116;6.878;2023-04-03T06:59:12;2.90;99.90
15083;DHT22;7640;53.116;6.878;2023-04-03T07:01:42;3.00;99.90
15083;DHT22;7640;53.116;6.878;2023-04-03T07:04:11;3.10;99.90
15083;DHT22;7640;53.116;6.878;2023-04-03T07:06:41;3.20;99.90
15083;DHT22;7640;53.116;6.878;2023-04-03T07:09:12;3.20;99.90
15083;DHT22;7640;53.116;6.878;2023-04-03T07:11:51;3.30;99.90
15083;DHT22;7640;53.116;6.878;2023-04-03T07:14:26;3.40;99.90
15083;DHT22;7640;53.116;6.878;2023-04-03T07:16:56;3.40;99.90
15083;DHT22;7640;53.116;6.878;2023-04-03T07:19:47;3.50;99.90
15083;DHT22;7640;53.116;6.878;2023-04-03T07:22:16;3.70;99.90
15083;DHT22;7640;53.116;6.878;2023-04-03T07:24:48;3.70;99.90
15083;DHT22;7640;53.116;6.878;2023-04-03T07:27:19;3.70;99.90
15083;DHT22;7640;53.116;6.878;2023-04-03T07:29:50;3.80;99.90
15083;DHT22;7640;53.116;6.878;2023-04-03T07:32:26;3.90;99.90
15083;DHT22;7640;53.116;6.878;2023-04-03T07:35:14;3.90;99.90
15083;DHT22;7640;53.116;6.878;2023-04-03T07:37:44;4.00;99.90
15083;DHT22;7640;53.116;6.878;2023-04-03T07:40:15;4.10;99.90
15083;DHT22;7640;53.116;6.878;2023-04-03T07:42:48;4.20;99.90
15083;DHT22;7640;53.116;6.878;2023-04-03T07:45:26;4.30;99.90
15083;DHT22;7640;53.116;6.878;2023-04-03T07:48:05;4.40;99.90
15083;DHT22;7640;53.116;6.878;2023-04-03T07:50:41;4.50;99.90
15083;DHT22;7640;53.116;6.878;2023-04-03T07:53:15;4.60;99.90
15083;DHT22;7640;53.116;6.878;2023-04-03T07:55:48;4.70;99.90
15083;DHT22;7640;53.116;6.878;2023-04-03T07:58:19;4.80;99.90
15083;DHT22;7640;53.116;6.878;2023-04-03T08:00:58;4.90;99.90
15083;DHT22;7640;53.116;6.878;2023-04-03T08:03:29;5.10;99.90
15083;DHT22;7640;53.116;6.878;2023-04-03T08:06:07;5.30;99.90
15083;DHT22;7640;53.116;6.878;2023-04-03T08:08:42;5.40;99.90
15083;DHT22;7640;53.116;6.878;2023-04-03T08:11:15;5.50;99.90
15083;DHT22;7640;53.116;6.878;2023-04-03T08:13:48;5.60;99.90
15083;DHT22;7640;53.116;6.878;2023-04-03T08:16:22;5.80;99.90
15083;DHT22;7640;53.116;6.878;2023-04-03T08:18:57;5.90;99.90
15083;DHT22;7640;53.116;6.878;2023-04-03T08:21:30;5.90;99.90
15083;DHT22;7640;53.116;6.878;2023-04-03T08:24:01;6.10;99.90
15083;DHT22;7640;53.116;6.878;2023-04-03T08:26:33;6.20;99.90
15083;DHT22;7640;53.116;6.878;2023-04-03T08:29:05;6.20;99.90
15083;DHT22;7640;53.116;6.878;2023-04-03T08:31:35;6.40;99.90
15083;DHT22;7640;53.116;6.878;2023-04-03T08:34:06;6.50;99.90
15083;DHT22;7640;53.116;6.878;2023-04-03T08:36:36;6.50;99.90
15083;DHT22;7640;53.116;6.878;2023-04-03T08:39:09;6.60;99.90
15083;DHT22;7640;53.116;6.878;2023-04-03T08:41:49;6.80;99.90
15083;DHT22;7640;53.116;6.878;2023-04-03T08:44:29;6.90;99.90
15083;DHT22;7640;53.116;6.878;2023-04-03T08:47:20;7.00;99.90
15083;DHT22;7640;53.116;6.878;2023-04-03T08:50:11;7.10;99.90
15083;DHT22;7640;53.116;6.878;2023-04-03T08:52:47;7.20;99.90
15083;DHT22;7640;53.116;6.878;2023-04-03T08:55:23;7.30;99.90
15083;DHT22;7640;53.116;6.878;2023-04-03T08:58:01;7.40;99.90
15083;DHT22;7640;53.116;6.878;2023-04-03T09:00:43;7.40;99.90
15083;DHT22;7640;53.116;6.878;2023-04-03T09:03:17;7.50;99.90
15083;DHT22;7640;53.116;6.878;2023-04-03T09:05:53;7.60;99.90
15083;DHT22;7640;53.116;6.878;2023-04-03T09:08:28;7.80;99.90
15083;DHT22;7640;53.116;6.878;2023-04-03T09:11:09;7.90;99.90
15083;DHT22;7640;53.116;6.878;2023-04-03T09:13:53;8.00;99.90
15083;DHT22;7640;53.116;6.878;2023-04-03T09:16:38;8.10;99.90
15083;DHT22;7640;53.116;6.878;2023-04-03T09:19:18;8.20;99.90
15083;DHT22;7640;53.116;6.878;2023-04-03T09:21:57;8.30;99.90
15083;DHT22;7640;53.116;6.878;2023-04-03T09:24:28;8.30;99.90
15083;DHT22;7640;53.116;6.878;2023-04-03T09:27:04;8.40;99.90
15083;DHT22;7640;53.116;6.878;2023-04-03T09:29:43;8.50;99.90
15083;DHT22;7640;53.116;6.878;2023-04-03T09:32:25;8.60;99.90
15083;DHT22;7640;53.116;6.878;2023-04-03T09:35:01;8.70;99.90
15083;DHT22;7640;53.116;6.878;2023-04-03T09:37:50;8.80;99.90
15083;DHT22;7640;53.116;6.878;2023-04-03T09:40:32;8.90;99.90
15083;DHT22;7640;53.116;6.878;2023-04-03T09:43:27;9.10;99.90
15083;DHT22;7640;53.116;6.878;2023-04-03T09:46:18;9.20;99.90
15083;DHT22;7640;53.116;6.878;2023-04-03T09:49:00;9.30;99.90
15083;DHT22;7640;53.116;6.878;2023-04-03T09:51:38;9.50;99.90
15083;DHT22;7640;53.116;6.878;2023-04-03T09:54:37;9.60;99.90
15083;DHT22;7640;53.116;6.878;2023-04-03T09:57:16;9.60;99.90
15083;DHT22;7640;53.116;6.878;2023-04-03T10:00:01;9.80;99.90
15083;DHT22;7640;53.116;6.878;2023-04-03T10:02:42;9.80;99.90
15083;DHT22;7640;53.116;6.878;2023-04-03T10:05:30;9.90;99.90
15083;DHT22;7640;53.116;6.878;2023-04-03T10:08:10;9.90;99.90
15083;DHT22;7640;53.116;6.878;2023-04-03T10:11:11;10.00;99.90
15083;DHT22;7640;53.116;6.878;2023-04-03T10:13:51;10.10;99.90
15083;DHT22;7640;53.116;6.878;2023-04-03T10:16:47;10.20;99.90
15083;DHT22;7640;53.116;6.878;2023-04-03T10:19:34;10.40;99.90
15083;DHT22;7640;53.116;6.878;2023-04-03T10:22:18;10.50;99.90
15083;DHT22;7640;53.116;6.878;2023-04-03T10:25:08;10.60;99.90
15083;DHT22;7640;53.116;6.878;2023-04-03T10:27:55;10.80;99.90
15083;DHT22;7640;53.116;6.878;2023-04-03T10:30:47;10.90;99.90
15083;DHT22;7640;53.116;6.878;2023-04-03T10:33:38;10.90;99.90
15083;DHT22;7640;53.116;6.878;2023-04-03T10:36:19;11.10;99.90
15083;DHT22;7640;53.116;6.878;2023-04-03T10:39:04;11.20;99.90
15083;DHT22;7640;53.116;6.878;2023-04-03T10:41:54;11.30;99.90
15083;DHT22;7640;53.116;6.878;2023-04-03T10:44:58;11.40;99.90
15083;DHT22;7640;53.116;6.878;2023-04-03T10:47:45;11.40;99.90
15083;DHT22;7640;53.116;6.878;2023-04-03T10:50:30;11.50;99.90
15083;DHT22;7640;53.116;6.878;2023-04-03T10:53:15;11.60;99.90
15083;DHT22;7640;53.116;6.878;2023-04-03T10:56:01;11.60;99.90
15083;DHT22;7640;53.116;6.878;2023-04-03T10:58:41;11.60;99.90
15083;DHT22;7640;53.116;6.878;2023-04-03T11:01:16;11.70;99.90
15083;DHT22;7640;53.116;6.878;2023-04-03T11:03:53;11.70;99.90
15083;DHT22;7640;53.116;6.878;2023-04-03T11:06:35;11.70;99.90
15083;DHT22;7640;53.116;6.878;2023-04-03T11:09:19;11.80;99.90
15083;DHT22;7640;53.116;6.878;2023-04-03T11:12:04;11.80;99.90
15083;DHT22;7640;53.116;6.878;2023-04-03T11:14:37;11.70;99.90
15083;DHT22;7640;53.116;6.878;2023-04-03T11:17:22;11.80;99.90
15083;DHT22;7640;53.116;6.878;2023-04-03T11:20:06;11.90;99.90
15083;DHT22;7640;53.116;6.878;2023-04-03T11:22:41;12.00;99.90
15083;DHT22;7640;53.116;6.878;2023-04-03T11:25:20;12.00;99.90
15083;DHT22;7640;53.116;6.878;2023-04-03T11:27:59;12.00;99.90
15083;DHT22;7640;53.116;6.878;2023-04-03T11:30:42;12.00;99.90
15083;DHT22;7640;53.116;6.878;2023-04-03T11:33:36;12.00;99.90
15083;DHT22;7640;53.116;6.878;2023-04-03T11:36:19;12.00;99.90
15083;DHT22;7640;53.116;6.878;2023-04-03T11:39:09;12.10;99.90
15083;DHT22;7640;53.116;6.878;2023-04-03T11:42:27;12.10;99.90
15083;DHT22;7640;53.116;6.878;2023-04-03T11:45:29;12.20;99.90
15083;DHT22;7640;53.116;6.878;2023-04-03T11:48:06;12.40;99.90
15083;DHT22;7640;53.116;6.878;2023-04-03T11:50:54;12.50;99.90
15083;DHT22;7640;53.116;6.878;2023-04-03T11:53:35;12.70;99.90
15083;DHT22;7640;53.116;6.878;2023-04-03T11:56:28;12.80;99.90
15083;DHT22;7640;53.116;6.878;2023-04-03T11:59:31;12.90;99.90
15083;DHT22;7640;53.116;6.878;2023-04-03T12:02:34;13.10;99.90
15083;DHT22;7640;53.116;6.878;2023-04-03T12:05:26;13.30;99.90
15083;DHT22;7640;53.116;6.878;2023-04-03T12:08:22;13.50;99.70
15083;DHT22;7640;53.116;6.878;2023-04-03T12:11:20;13.60;99.30
15083;DHT22;7640;53.116;6.878;2023-04-03T12:14:05;13.80;99.40
15083;DHT22;7640;53.116;6.878;2023-04-03T12:16:51;13.90;98.90
15083;DHT22;7640;53.116;6.878;2023-04-03T12:19:35;13.90;98.80
15083;DHT22;7640;53.116;6.878;2023-04-03T12:22:17;14.10;98.80
15083;DHT22;7640;53.116;6.878;2023-04-03T12:24:50;14.20;98.50
15083;DHT22;7640;53.116;6.878;2023-04-03T12:27:28;14.40;98.50
15083;DHT22;7640;53.116;6.878;2023-04-03T12:30:12;14.60;97.70
15083;DHT22;7640;53.116;6.878;2023-04-03T12:33:13;14.80;98.20
15083;DHT22;7640;53.116;6.878;2023-04-03T12:35:58;15.30;98.10
15083;DHT22;7640;53.116;6.878;2023-04-03T12:38:50;15.40;97.50
15083;DHT22;7640;53.116;6.878;2023-04-03T12:41:37;15.60;97.20
15083;DHT22;7640;53.116;6.878;2023-04-03T12:44:29;15.70;96.10
15083;DHT22;7640;53.116;6.878;2023-04-03T12:47:22;15.90;95.60
15083;DHT22;7640;53.116;6.878;2023-04-03T12:49:58;16.20;95.10
15083;DHT22;7640;53.116;6.878;2023-04-03T12:52:37;16.40;94.70
15083;DHT22;7640;53.116;6.878;2023-04-03T12:55:15;16.60;94.40
15083;DHT22;7640;53.116;6.878;2023-04-03T12:57:47;16.70;93.50
15083;DHT22;7640;53.116;6.878;2023-04-03T13:00:29;16.90;93.40
15083;DHT22;7640;53.116;6.878;2023-04-03T13:03:03;17.20;93.40
15083;DHT22;7640;53.116;6.878;2023-04-03T13:05:52;17.40;92.80
15083;DHT22;7640;53.116;6.878;2023-04-03T13:08:25;17.60;92.20
15083;DHT22;7640;53.116;6.878;2023-04-03T13:10:59;17.80;91.80
15083;DHT22;7640;53.116;6.878;2023-04-03T13:13:30;18.10;91.50
15083;DHT22;7640;53.116;6.878;2023-04-03T13:15:59;18.20;91.00
15083;DHT22;7640;53.116;6.878;2023-04-03T13:18:41;18.40;91.10
15083;DHT22;7640;53.116;6.878;2023-04-03T13:21:17;18.80;90.40
15083;DHT22;7640;53.116;6.878;2023-04-03T13:23:53;19.10;89.30
15083;DHT22;7640;53.116;6.878;2023-04-03T13:26:40;19.40;90.10
15083;DHT22;7640;53.116;6.878;2023-04-03T13:29:22;19.70;89.90
15083;DHT22;7640;53.116;6.878;2023-04-03T13:32:05;20.00;87.90
15083;DHT22;7640;53.116;6.878;2023-04-03T13:34:43;20.20;89.20
15083;DHT22;7640;53.116;6.878;2023-04-03T13:37:23;20.30;87.00
15083;DHT22;7640;53.116;6.878;2023-04-03T13:39:59;20.50;85.50
15083;DHT22;7640;53.116;6.878;2023-04-03T13:42:40;20.60;85.40
15083;DHT22;7640;53.116;6.878;2023-04-03T13:45:17;20.70;84.00
15083;DHT22;7640;53.116;6.878;2023-04-03T13:48:08;20.90;83.50
15083;DHT22;7640;53.116;6.878;2023-04-03T13:51:05;21.00;82.10
15083;DHT22;7640;53.116;6.878;2023-04-03T13:53:52;21.20;81.10
15083;DHT22;7640;53.116;6.878;2023-04-03T13:56:35;21.40;80.80
15083;DHT22;7640;53.116;6.878;2023-04-03T13:59:24;21.40;80.10
15083;DHT22;7640;53.116;6.878;2023-04-03T14:02:15;21.50;79.60
15083;DHT22;7640;53.116;6.878;2023-04-03T14:04:50;21.60;77.80
15083;DHT22;7640;53.116;6.878;2023-04-03T14:07:28;21.70;78.00
15083;DHT22;7640;53.116;6.878;2023-04-03T14:10:08;21.90;78.10
15083;DHT22;7640;53.116;6.878;2023-04-03T14:12:38;22.00;76.80
15083;DHT22;7640;53.116;6.878;2023-04-03T14:15:17;22.10;77.30
15083;DHT22;7640;53.116;6.878;2023-04-03T14:18:19;22.30;77.40
15083;DHT22;7640;53.116;6.878;2023-04-03T14:20:53;22.70;76.20
15083;DHT22;7640;53.116;6.878;2023-04-03T14:23:27;23.00;75.00
15083;DHT22;7640;53.116;6.878;2023-04-03T14:26:09;23.10;74.00
15083;DHT22;7640;53.116;6.878;2023-04-03T14:28:41;23.10;73.50
15083;DHT22;7640;53.116;6.878;2023-04-03T14:31:12;23.30;71.30
15083;DHT22;7640;53.116;6.878;2023-04-03T14:33:47;23.30;70.50
15083;DHT22;7640;53.116;6.878;2023-04-03T14:36:42;23.40;71.20
15083;DHT22;7640;53.116;6.878;2023-04-03T14:39:17;23.60;70.80
15083;DHT22;7640;53.116;6.878;2023-04-03T14:41:49;23.70;69.80
15083;DHT22;7640;53.116;6.878;2023-04-03T14:44:22;23.90;68.20
15083;DHT22;7640;53.116;6.878;2023-04-03T14:46:55;23.80;67.90
15083;DHT22;7640;53.116;6.878;2023-04-03T14:49:28;23.80;67.80
15083;DHT22;7640;53.116;6.878;2023-04-03T14:51:58;23.90;68.50
15083;DHT22;7640;53.116;6.878;2023-04-03T14:54:28;24.00;67.90
15083;DHT22;7640;53.116;6.878;2023-04-03T14:57:01;23.90;68.20
15083;DHT22;7640;53.116;6.878;2023-04-03T14:59:31;24.20;67.40
15083;DHT22;7640;53.116;6.878;2023-04-03T15:02:01;24.30;66.40
15083;DHT22;7640;53.116;6.878;2023-04-03T15:04:34;24.60;67.40
15083;DHT22;7640;53.116;6.878;2023-04-03T15:07:04;24.90;66.80
15083;DHT22;7640;53.116;6.878;2023-04-03T15:09:34;24.90;65.90
15083;DHT22;7640;53.116;6.878;2023-04-03T15:12:11;24.70;66.40
15083;DHT22;7640;53.116;6.878;2023-04-03T15:14:42;24.70;65.20
15083;DHT22;7640;53.116;6.878;2023-04-03T15:17:25;24.80;65.10
15083;DHT22;7640;53.116;6.878;2023-04-03T15:19:56;24.80;63.20
15083;DHT22;7640;53.116;6.878;2023-04-03T15:22:28;24.70;63.50
15083;DHT22;7640;53.116;6.878;2023-04-03T15:24:58;24.80;64.80
15083;DHT22;7640;53.116;6.878;2023-04-03T15:27:31;25.00;63.10
15083;DHT22;7640;53.116;6.878;2023-04-03T15:30:01;25.20;63.50
15083;DHT22;7640;53.116;6.878;2023-04-03T15:32:34;25.10;63.60
15083;DHT22;7640;53.116;6.878;2023-04-03T15:35:05;25.10;62.90
15083;DHT22;7640;53.116;6.878;2023-04-03T15:37:35;25.10;62.50
15083;DHT22;7640;53.116;6.878;2023-04-03T15:40:07;25.00;60.80
15083;DHT22;7640;53.116;6.878;2023-04-03T15:42:41;25.00;60.70
15083;DHT22;7640;53.116;6.878;2023-04-03T15:45:11;25.00;61.10
15083;DHT22;7640;53.116;6.878;2023-04-03T15:47:42;25.00;60.30
15083;DHT22;7640;53.116;6.878;2023-04-03T15:50:11;25.10;59.60
15083;DHT22;7640;53.116;6.878;2023-04-03T15:52:43;25.30;59.50
15083;DHT22;7640;53.116;6.878;2023-04-03T15:55:12;25.40;59.30
15083;DHT22;7640;53.116;6.878;2023-04-03T15:57:59;25.50;59.40
15083;DHT22;7640;53.116;6.878;2023-04-03T16:01:00;25.50;58.50
15083;DHT22;7640;53.116;6.878;2023-04-03T16:03:31;25.40;59.20
15083;DHT22;7640;53.116;6.878;2023-04-03T16:06:03;25.40;59.90
15083;DHT22;7640;53.116;6.878;2023-04-03T16:08:37;25.60;59.50
15083;DHT22;7640;53.116;6.878;2023-04-03T16:11:07;25.80;59.20
15083;DHT22;7640;53.116;6.878;2023-04-03T16:13:39;26.10;58.00
15083;DHT22;7640;53.116;6.878;2023-04-03T16:16:09;25.90;58.30
15083;DHT22;7640;53.116;6.878;2023-04-03T16:18:39;25.90;58.60
15083;DHT22;7640;53.116;6.878;2023-04-03T16:21:09;26.00;58.10
15083;DHT22;7640;53.116;6.878;2023-04-03T16:23:39;26.10;58.50
15083;DHT22;7640;53.116;6.878;2023-04-03T16:26:13;26.10;58.00
15083;DHT22;7640;53.116;6.878;2023-04-03T16:28:49;25.90;58.00
15083;DHT22;7640;53.116;6.878;2023-04-03T16:31:27;25.80;58.50
15083;DHT22;7640;53.116;6.878;2023-04-03T16:33:58;25.60;58.00
15083;DHT22;7640;53.116;6.878;2023-04-03T16:36:28;25.50;58.10
15083;DHT22;7640;53.116;6.878;2023-04-03T16:39:11;25.40;58.20
15083;DHT22;7640;53.116;6.878;2023-04-03T16:41:40;25.50;58.20
15083;DHT22;7640;53.116;6.878;2023-04-03T16:44:12;25.60;58.50
15083;DHT22;7640;53.116;6.878;2023-04-03T16:46:42;25.80;58.80
15083;DHT22;7640;53.116;6.878;2023-04-03T16:49:14;25.90;57.90
15083;DHT22;7640;53.116;6.878;2023-04-03T16:51:48;25.80;57.70
15083;DHT22;7640;53.116;6.878;2023-04-03T16:54:37;25.80;57.70
15083;DHT22;7640;53.116;6.878;2023-04-03T16:57:09;25.60;57.30
15083;DHT22;7640;53.116;6.878;2023-04-03T16:59:41;25.30;58.10
15083;DHT22;7640;53.116;6.878;2023-04-03T17:02:12;25.30;58.60
15083;DHT22;7640;53.116;6.878;2023-04-03T17:04:45;25.20;58.60
15083;DHT22;7640;53.116;6.878;2023-04-03T17:07:28;25.20;58.10
15083;DHT22;7640;53.116;6.878;2023-04-03T17:10:04;25.10;57.80
15083;DHT22;7640;53.116;6.878;2023-04-03T17:12:35;24.90;57.90
15083;DHT22;7640;53.116;6.878;2023-04-03T17:15:09;24.60;57.80
15083;DHT22;7640;53.116;6.878;2023-04-03T17:17:40;24.00;57.80
15083;DHT22;7640;53.116;6.878;2023-04-03T17:20:13;23.40;58.50
15083;DHT22;7640;53.116;6.878;2023-04-03T17:22:44;23.10;59.20
15083;DHT22;7640;53.116;6.878;2023-04-03T17:25:31;22.80;59.10
15083;DHT22;7640;53.116;6.878;2023-04-03T17:28:01;22.30;59.00
15083;DHT22;7640;53.116;6.878;2023-04-03T17:30:33;21.70;59.80
15083;DHT22;7640;53.116;6.878;2023-04-03T17:33:05;21.00;60.90
15083;DHT22;7640;53.116;6.878;2023-04-03T17:35:36;20.30;62.00
15083;DHT22;7640;53.116;6.878;2023-04-03T17:38:07;19.70;62.90
15083;DHT22;7640;53.116;6.878;2023-04-03T17:40:38;19.00;64.50
15083;DHT22;7640;53.116;6.878;2023-04-03T17:43:19;18.30;65.70
15083;DHT22;7640;53.116;6.878;2023-04-03T17:46:00;17.80;66.60
15083;DHT22;7640;53.116;6.878;2023-04-03T17:48:33;17.50;67.50
15083;DHT22;7640;53.116;6.878;2023-04-03T17:51:04;17.10;68.40
15083;DHT22;7640;53.116;6.878;2023-04-03T17:53:42;16.60;69.00
15083;DHT22;7640;53.116;6.878;2023-04-03T17:56:31;16.00;69.70
15083;DHT22;7640;53.116;6.878;2023-04-03T17:59:02;15.30;71.20
15083;DHT22;7640;53.116;6.878;2023-04-03T18:01:42;14.70;73.30
15083;DHT22;7640;53.116;6.878;2023-04-03T18:04:19;14.00;74.80
15083;DHT22;7640;53.116;6.878;2023-04-03T18:06:52;13.50;76.10
15083;DHT22;7640;53.116;6.878;2023-04-03T18:09:28;13.00;77.00
15083;DHT22;7640;53.116;6.878;2023-04-03T18:12:28;12.50;78.70
15083;DHT22;7640;53.116;6.878;2023-04-03T18:15:07;12.00;80.00
15083;DHT22;7640;53.116;6.878;2023-04-03T18:17:54;11.60;81.60
15083;DHT22;7640;53.116;6.878;2023-04-03T18:20:28;11.30;82.90
15083;DHT22;7640;53.116;6.878;2023-04-03T18:22:59;11.00;84.10
15083;DHT22;7640;53.116;6.878;2023-04-03T18:25:31;10.70;85.40
15083;DHT22;7640;53.116;6.878;2023-04-03T18:28:03;10.40;87.30
15083;DHT22;7640;53.116;6.878;2023-04-03T18:30:41;10.20;88.70
15083;DHT22;7640;53.116;6.878;2023-04-03T18:33:13;10.00;90.00
15083;DHT22;7640;53.116;6.878;2023-04-03T18:35:43;9.80;90.50
15083;DHT22;7640;53.116;6.878;2023-04-03T18:38:13;9.60;91.10